Terminal Aerodrome Forecast
Issued by NWS

Current Version | Previous Version | Graphics & Text | Print | Product List | Glossary Off
Versions: 1 2 3 4 5 6 7 8 9 10 11 12 13 14 15 16 17 18 19 20 21

000
FTUS41 KRLX 260500
TAFCKB
TAF
KCKB 260540Z 2606/2706 00000KT P6SM BKN100
     FM261500 21007KT P6SM SCT050
     FM262300 22004KT P6SM SCT120
     FM270400 19003KT P6SM BKN090=

USA.gov is the U.S. government's official web portal to all federal, state and local government web resources and services.